sensor_id;sensor_type;location;lat;lon;timestamp;pressure;altitude;pressure_sealevel;temperature;humidity
55687;BME280;41911;52.362;4.978;2022-09-27T00:00:22;99704.58;;;10.81;51.38
55687;BME280;41911;52.362;4.978;2022-09-27T00:00:57;99707.73;;;10.53;52.08
55687;BME280;41911;52.362;4.978;2022-09-27T00:01:28;99712.15;;;10.04;52.35
55687;BME280;41911;52.362;4.978;2022-09-27T00:01:59;99711.25;;;10.45;51.91
55687;BME280;41911;52.362;4.978;2022-09-27T00:02:30;99710.01;;;10.31;51.63
55687;BME280;41911;52.362;4.978;2022-09-27T00:03:01;99709.44;;;10.68;51.48
55687;BME280;41911;52.362;4.978;2022-09-27T00:03:32;99708.42;;;10.89;51.43
55687;BME280;41911;52.362;4.978;2022-09-27T00:04:03;99708.38;;;10.51;51.15
55687;BME280;41911;52.362;4.978;2022-09-27T00:04:34;99707.40;;;10.36;51.22
55687;BME280;41911;52.362;4.978;2022-09-27T00:05:06;99709.48;;;10.97;50.74
55687;BME280;41911;52.362;4.978;2022-09-27T00:05:37;99708.33;;;10.65;50.81
55687;BME280;41911;52.362;4.978;2022-09-27T00:06:12;99707.64;;;10.94;50.90
55687;BME280;41911;52.362;4.978;2022-09-27T00:06:44;99709.56;;;10.46;50.67
55687;BME280;41911;52.362;4.978;2022-09-27T00:07:15;99708.16;;;10.50;50.63
55687;BME280;41911;52.362;4.978;2022-09-27T00:07:46;99711.48;;;10.93;50.28
55687;BME280;41911;52.362;4.978;2022-09-27T00:08:17;99710.64;;;10.67;50.04
55687;BME280;41911;52.362;4.978;2022-09-27T00:08:48;99710.20;;;10.65;50.09
55687;BME280;41911;52.362;4.978;2022-09-27T00:09:19;99713.40;;;11.29;50.24
55687;BME280;41911;52.362;4.978;2022-09-27T00:09:50;99711.75;;;9.55;52.05
55687;BME280;41911;52.362;4.978;2022-09-27T00:10:22;99709.39;;;9.90;51.70
55687;BME280;41911;52.362;4.978;2022-09-27T00:10:58;99713.58;;;10.17;51.76
55687;BME280;41911;52.362;4.978;2022-09-27T00:11:32;99706.22;;;10.19;51.24
55687;BME280;41911;52.362;4.978;2022-09-27T00:12:03;99709.55;;;10.59;51.18
55687;BME280;41911;52.362;4.978;2022-09-27T00:12:35;99710.51;;;10.18;51.67
55687;BME280;41911;52.362;4.978;2022-09-27T00:13:06;99708.85;;;10.81;51.24
55687;BME280;41911;52.362;4.978;2022-09-27T00:13:37;99707.03;;;10.86;51.00
55687;BME280;41911;52.362;4.978;2022-09-27T00:14:10;99705.53;;;10.46;51.31
55687;BME280;41911;52.362;4.978;2022-09-27T00:14:42;99705.30;;;10.24;51.13
55687;BME280;41911;52.362;4.978;2022-09-27T00:15:13;99702.30;;;10.35;50.70
55687;BME280;41911;52.362;4.978;2022-09-27T00:15:44;99703.68;;;11.08;50.68
55687;BME280;41911;52.362;4.978;2022-09-27T00:16:16;99704.01;;;10.76;50.70
55687;BME280;41911;52.362;4.978;2022-09-27T00:16:47;99705.38;;;10.47;50.64
55687;BME280;41911;52.362;4.978;2022-09-27T00:17:18;99705.79;;;10.57;50.36
55687;BME280;41911;52.362;4.978;2022-09-27T00:17:49;99705.63;;;10.96;50.22
55687;BME280;41911;52.362;4.978;2022-09-27T00:18:20;99707.35;;;10.95;50.35
55687;BME280;41911;52.362;4.978;2022-09-27T00:18:51;99705.61;;;10.64;50.08
55687;BME280;41911;52.362;4.978;2022-09-27T00:19:22;99705.28;;;10.45;50.55
55687;BME280;41911;52.362;4.978;2022-09-27T00:19:54;99709.52;;;10.66;50.18
55687;BME280;41911;52.362;4.978;2022-09-27T00:20:25;99704.79;;;10.11;51.12
55687;BME280;41911;52.362;4.978;2022-09-27T00:20:55;99705.56;;;10.19;51.05
55687;BME280;41911;52.362;4.978;2022-09-27T00:21:28;99707.56;;;10.28;50.98
55687;BME280;41911;52.362;4.978;2022-09-27T00:21:59;99704.61;;;10.43;51.00
55687;BME280;41911;52.362;4.978;2022-09-27T00:22:30;99703.67;;;10.90;50.92
55687;BME280;41911;52.362;4.978;2022-09-27T00:23:01;99705.27;;;10.79;50.40
55687;BME280;41911;52.362;4.978;2022-09-27T00:23:32;99706.13;;;11.10;50.42
55687;BME280;41911;52.362;4.978;2022-09-27T00:24:04;99706.02;;;10.84;50.20
55687;BME280;41911;52.362;4.978;2022-09-27T00:24:35;99704.57;;;10.87;50.59
55687;BME280;41911;52.362;4.978;2022-09-27T00:25:06;99702.91;;;10.36;50.26
55687;BME280;41911;52.362;4.978;2022-09-27T00:25:37;99702.04;;;10.76;50.38
55687;BME280;41911;52.362;4.978;2022-09-27T00:26:11;99702.88;;;10.54;50.33
55687;BME280;41911;52.362;4.978;2022-09-27T00:26:42;99703.34;;;10.65;50.17
55687;BME280;41911;52.362;4.978;2022-09-27T00:27:13;99702.42;;;10.38;50.37
55687;BME280;41911;52.362;4.978;2022-09-27T00:27:44;99702.78;;;10.82;50.46
55687;BME280;41911;52.362;4.978;2022-09-27T00:28:15;99703.51;;;10.61;50.05
55687;BME280;41911;52.362;4.978;2022-09-27T00:28:46;99703.45;;;10.62;49.94
55687;BME280;41911;52.362;4.978;2022-09-27T00:29:18;99704.58;;;10.69;49.40
55687;BME280;41911;52.362;4.978;2022-09-27T00:29:49;99703.19;;;11.04;49.84
55687;BME280;41911;52.362;4.978;2022-09-27T00:30:20;99702.96;;;10.75;49.76
55687;BME280;41911;52.362;4.978;2022-09-27T00:30:51;99702.36;;;10.70;49.65
55687;BME280;41911;52.362;4.978;2022-09-27T00:31:24;99704.45;;;10.68;50.04
55687;BME280;41911;52.362;4.978;2022-09-27T00:31:55;99704.80;;;10.64;49.79
55687;BME280;41911;52.362;4.978;2022-09-27T00:32:26;99702.24;;;10.55;50.24
55687;BME280;41911;52.362;4.978;2022-09-27T00:32:57;99706.53;;;10.48;50.20
55687;BME280;41911;52.362;4.978;2022-09-27T00:33:29;99708.22;;;10.55;50.10
55687;BME280;41911;52.362;4.978;2022-09-27T00:34:01;99707.73;;;10.73;50.24
55687;BME280;41911;52.362;4.978;2022-09-27T00:34:32;99707.86;;;10.56;50.16
55687;BME280;41911;52.362;4.978;2022-09-27T00:35:04;99707.16;;;10.67;49.73
55687;BME280;41911;52.362;4.978;2022-09-27T00:35:35;99704.26;;;10.41;49.79
55687;BME280;41911;52.362;4.978;2022-09-27T00:36:06;99707.82;;;10.43;49.95
55687;BME280;41911;52.362;4.978;2022-09-27T00:36:37;99707.44;;;10.79;50.05
55687;BME280;41911;52.362;4.978;2022-09-27T00:37:09;99708.06;;;10.64;49.78
55687;BME280;41911;52.362;4.978;2022-09-27T00:37:40;99707.04;;;10.75;50.26
55687;BME280;41911;52.362;4.978;2022-09-27T00:38:12;99708.93;;;10.82;49.97
55687;BME280;41911;52.362;4.978;2022-09-27T00:38:43;99709.64;;;10.68;49.73
55687;BME280;41911;52.362;4.978;2022-09-27T00:39:15;99708.85;;;10.74;49.57
55687;BME280;41911;52.362;4.978;2022-09-27T00:39:46;99710.94;;;10.71;49.66
55687;BME280;41911;52.362;4.978;2022-09-27T00:40:17;99710.43;;;10.66;49.86
55687;BME280;41911;52.362;4.978;2022-09-27T00:40:48;99710.03;;;10.58;50.02
55687;BME280;41911;52.362;4.978;2022-09-27T00:41:22;99712.49;;;10.78;49.94
55687;BME280;41911;52.362;4.978;2022-09-27T00:41:53;99711.72;;;10.41;50.18
55687;BME280;41911;52.362;4.978;2022-09-27T00:42:25;99712.88;;;10.39;50.33
55687;BME280;41911;52.362;4.978;2022-09-27T00:42:56;99715.85;;;10.64;50.31
55687;BME280;41911;52.362;4.978;2022-09-27T00:43:43;99716.49;;;10.90;50.14
55687;BME280;41911;52.362;4.978;2022-09-27T00:45:20;99716.69;;;10.69;50.68
55687;BME280;41911;52.362;4.978;2022-09-27T00:45:52;99717.30;;;10.44;51.25
55687;BME280;41911;52.362;4.978;2022-09-27T00:46:32;99716.63;;;10.40;51.16
55687;BME280;41911;52.362;4.978;2022-09-27T00:47:10;99716.24;;;10.49;51.10
55687;BME280;41911;52.362;4.978;2022-09-27T00:47:48;99715.28;;;10.71;50.98
55687;BME280;41911;52.362;4.978;2022-09-27T00:48:22;99714.48;;;10.92;50.92
55687;BME280;41911;52.362;4.978;2022-09-27T00:49:03;99714.97;;;10.52;51.17
55687;BME280;41911;52.362;4.978;2022-09-27T00:49:38;99714.86;;;10.89;50.97
55687;BME280;41911;52.362;4.978;2022-09-27T00:50:20;99714.23;;;11.00;50.72
55687;BME280;41911;52.362;4.978;2022-09-27T00:50:55;99716.85;;;10.76;50.58
55687;BME280;41911;52.362;4.978;2022-09-27T00:51:27;99716.70;;;10.75;50.66
55687;BME280;41911;52.362;4.978;2022-09-27T00:52:02;99716.97;;;10.43;50.98
55687;BME280;41911;52.362;4.978;2022-09-27T00:52:42;99718.70;;;10.61;50.73
55687;BME280;41911;52.362;4.978;2022-09-27T00:53:18;99716.59;;;10.68;51.15
55687;BME280;41911;52.362;4.978;2022-09-27T00:53:51;99718.03;;;11.09;50.79
55687;BME280;41911;52.362;4.978;2022-09-27T00:54:25;99715.79;;;10.24;51.31
55687;BME280;41911;52.362;4.978;2022-09-27T00:55:04;99714.45;;;10.31;51.31
55687;BME280;41911;52.362;4.978;2022-09-27T00:55:41;99716.53;;;10.44;51.43
55687;BME280;41911;52.362;4.978;2022-09-27T00:56:15;99716.44;;;10.33;51.93
55687;BME280;41911;52.362;4.978;2022-09-27T00:56:49;99718.00;;;10.05;52.25
55687;BME280;41911;52.362;4.978;2022-09-27T00:57:21;99720.67;;;10.35;51.99
55687;BME280;41911;52.362;4.978;2022-09-27T00:57:53;99717.54;;;10.77;51.79
55687;BME280;41911;52.362;4.978;2022-09-27T00:58:29;99715.86;;;10.90;51.50
55687;BME280;41911;52.362;4.978;2022-09-27T00:59:05;99718.66;;;10.58;51.57
55687;BME280;41911;52.362;4.978;2022-09-27T00:59:42;99715.02;;;10.82;51.01
55687;BME280;41911;52.362;4.978;2022-09-27T01:00:16;99714.98;;;10.39;51.01
55687;BME280;41911;52.362;4.978;2022-09-27T01:00:51;99715.87;;;10.56;50.83
55687;BME280;41911;52.362;4.978;2022-09-27T01:01:23;99717.36;;;10.65;50.88
55687;BME280;41911;52.362;4.978;2022-09-27T01:01:54;99716.69;;;10.65;51.08
55687;BME280;41911;52.362;4.978;2022-09-27T01:02:26;99716.35;;;10.27;50.89
55687;BME280;41911;52.362;4.978;2022-09-27T01:02:58;99716.57;;;10.28;50.92
55687;BME280;41911;52.362;4.978;2022-09-27T01:03:36;99715.44;;;10.49;50.99
55687;BME280;41911;52.362;4.978;2022-09-27T01:04:10;99716.24;;;10.53;50.89
55687;BME280;41911;52.362;4.978;2022-09-27T01:04:42;99723.56;;;10.62;50.70
55687;BME280;41911;52.362;4.978;2022-09-27T01:05:17;99724.69;;;10.83;50.89
55687;BME280;41911;52.362;4.978;2022-09-27T01:05:49;99731.63;;;10.70;50.92
55687;BME280;41911;52.362;4.978;2022-09-27T01:06:20;99729.91;;;10.83;50.43
55687;BME280;41911;52.362;4.978;2022-09-27T01:06:51;99728.03;;;10.84;50.49
55687;BME280;41911;52.362;4.978;2022-09-27T01:07:23;99725.56;;;10.91;50.43
55687;BME280;41911;52.362;4.978;2022-09-27T01:07:54;99725.62;;;10.97;50.01
55687;BME280;41911;52.362;4.978;2022-09-27T01:08:25;99726.96;;;11.07;50.12
55687;BME280;41911;52.362;4.978;2022-09-27T01:08:56;99728.56;;;11.49;50.16
55687;BME280;41911;52.362;4.978;2022-09-27T01:09:27;99727.70;;;10.92;50.10
55687;BME280;41911;52.362;4.978;2022-09-27T01:09:58;99729.53;;;11.18;50.17
55687;BME280;41911;52.362;4.978;2022-09-27T01:10:34;99731.05;;;11.27;50.11
55687;BME280;41911;52.362;4.978;2022-09-27T01:11:13;99728.82;;;11.39;49.96
55687;BME280;41911;52.362;4.978;2022-09-27T01:11:55;99728.86;;;11.16;49.75
55687;BME280;41911;52.362;4.978;2022-09-27T01:12:33;99730.82;;;11.35;49.70
55687;BME280;41911;52.362;4.978;2022-09-27T01:13:13;99728.15;;;11.39;49.40
55687;BME280;41911;52.362;4.978;2022-09-27T01:13:57;99729.17;;;11.44;49.41
55687;BME280;41911;52.362;4.978;2022-09-27T01:14:40;99725.96;;;11.80;49.29
55687;BME280;41911;52.362;4.978;2022-09-27T01:15:24;99726.20;;;11.47;49.22
55687;BME280;41911;52.362;4.978;2022-09-27T01:15:59;99727.99;;;11.32;49.11
55687;BME280;41911;52.362;4.978;2022-09-27T01:16:39;99725.99;;;10.79;49.89
55687;BME280;41911;52.362;4.978;2022-09-27T01:17:25;99727.27;;;11.06;49.63
55687;BME280;41911;52.362;4.978;2022-09-27T01:18:16;99727.10;;;10.84;50.33
55687;BME280;41911;52.362;4.978;2022-09-27T01:18:59;99727.46;;;10.63;50.64
55687;BME280;41911;52.362;4.978;2022-09-27T01:19:54;99728.68;;;10.56;50.55
55687;BME280;41911;52.362;4.978;2022-09-27T01:21:02;99726.73;;;10.50;50.15
55687;BME280;41911;52.362;4.978;2022-09-27T01:21:44;99726.83;;;11.01;49.96
55687;BME280;41911;52.362;4.978;2022-09-27T01:22:22;99727.62;;;10.89;50.30
55687;BME280;41911;52.362;4.978;2022-09-27T01:23:07;99730.04;;;10.93;49.48
55687;BME280;41911;52.362;4.978;2022-09-27T01:23:57;99730.56;;;11.19;49.71
55687;BME280;41911;52.362;4.978;2022-09-27T01:25:14;99727.33;;;10.85;49.62
55687;BME280;41911;52.362;4.978;2022-09-27T01:25:59;99722.41;;;10.46;50.21
55687;BME280;41911;52.362;4.978;2022-09-27T01:26:49;99721.14;;;10.57;49.82
55687;BME280;41911;52.362;4.978;2022-09-27T01:27:49;99720.45;;;10.77;50.09
55687;BME280;41911;52.362;4.978;2022-09-27T01:28:37;99719.52;;;10.93;49.98
55687;BME280;41911;52.362;4.978;2022-09-27T01:29:17;99719.90;;;10.50;49.75
55687;BME280;41911;52.362;4.978;2022-09-27T01:30:10;99718.44;;;10.47;49.81
55687;BME280;41911;52.362;4.978;2022-09-27T01:30:44;99721.30;;;11.16;49.94
55687;BME280;41911;52.362;4.978;2022-09-27T01:31:23;99721.43;;;10.52;50.08
55687;BME280;41911;52.362;4.978;2022-09-27T01:32:01;99722.75;;;11.11;49.94
55687;BME280;41911;52.362;4.978;2022-09-27T01:32:40;99723.14;;;10.45;50.78
55687;BME280;41911;52.362;4.978;2022-09-27T01:33:24;99731.65;;;10.45;51.04
55687;BME280;41911;52.362;4.978;2022-09-27T01:34:01;99732.55;;;10.42;51.43
55687;BME280;41911;52.362;4.978;2022-09-27T01:34:43;99727.41;;;10.20;52.16
55687;BME280;41911;52.362;4.978;2022-09-27T01:35:23;99725.35;;;10.40;51.99
55687;BME280;41911;52.362;4.978;2022-09-27T01:36:06;99723.04;;;10.56;51.66
55687;BME280;41911;52.362;4.978;2022-09-27T01:36:44;99725.94;;;10.60;51.66
55687;BME280;41911;52.362;4.978;2022-09-27T01:37:21;99725.02;;;10.34;51.74
55687;BME280;41911;52.362;4.978;2022-09-27T01:38:01;99723.70;;;10.72;51.52
55687;BME280;41911;52.362;4.978;2022-09-27T01:38:41;99722.77;;;10.44;51.38
55687;BME280;41911;52.362;4.978;2022-09-27T01:39:26;99722.01;;;10.75;51.20
55687;BME280;41911;52.362;4.978;2022-09-27T01:40:08;99724.47;;;10.79;51.29
55687;BME280;41911;52.362;4.978;2022-09-27T01:40:45;99721.50;;;10.41;51.03
55687;BME280;41911;52.362;4.978;2022-09-27T01:41:26;99724.71;;;10.75;50.85
55687;BME280;41911;52.362;4.978;2022-09-27T01:42:05;99725.29;;;10.81;51.38
55687;BME280;41911;52.362;4.978;2022-09-27T01:42:42;99726.98;;;10.28;51.72
55687;BME280;41911;52.362;4.978;2022-09-27T01:43:21;99727.66;;;10.16;51.87
55687;BME280;41911;52.362;4.978;2022-09-27T01:43:58;99726.86;;;10.19;52.10
55687;BME280;41911;52.362;4.978;2022-09-27T01:44:36;99724.24;;;10.52;51.74
55687;BME280;41911;52.362;4.978;2022-09-27T01:45:11;99722.51;;;9.75;52.93
55687;BME280;41911;52.362;4.978;2022-09-27T01:45:49;99726.49;;;9.95;52.44
55687;BME280;41911;52.362;4.978;2022-09-27T01:46:25;99732.75;;;10.17;52.39
55687;BME280;41911;52.362;4.978;2022-09-27T01:47:02;99733.63;;;9.60;52.54
55687;BME280;41911;52.362;4.978;2022-09-27T01:47:37;99728.41;;;9.07;53.71
55687;BME280;41911;52.362;4.978;2022-09-27T01:48:15;99734.26;;;9.34;54.24
55687;BME280;41911;52.362;4.978;2022-09-27T01:48:49;99721.68;;;9.20;53.96
55687;BME280;41911;52.362;4.978;2022-09-27T01:49:26;99734.89;;;8.50;55.07
55687;BME280;41911;52.362;4.978;2022-09-27T01:50:02;99730.44;;;8.56;55.30
55687;BME280;41911;52.362;4.978;2022-09-27T01:50:39;99728.68;;;8.45;55.40
55687;BME280;41911;52.362;4.978;2022-09-27T01:51:14;99721.90;;;8.77;55.44
55687;BME280;41911;52.362;4.978;2022-09-27T01:51:51;99722.08;;;8.82;55.35
55687;BME280;41911;52.362;4.978;2022-09-27T01:52:31;99722.13;;;9.17;54.71
55687;BME280;41911;52.362;4.978;2022-09-27T01:53:06;99716.63;;;8.94;54.00
55687;BME280;41911;52.362;4.978;2022-09-27T01:53:42;99718.25;;;8.72;54.38
55687;BME280;41911;52.362;4.978;2022-09-27T01:54:18;99719.84;;;8.53;54.95
55687;BME280;41911;52.362;4.978;2022-09-27T01:54:55;99715.12;;;8.61;54.72
55687;BME280;41911;52.362;4.978;2022-09-27T01:55:36;99720.04;;;8.97;53.55
55687;BME280;41911;52.362;4.978;2022-09-27T01:56:12;99720.90;;;9.18;52.84
55687;BME280;41911;52.362;4.978;2022-09-27T01:56:47;99718.34;;;9.37;52.88
55687;BME280;41911;52.362;4.978;2022-09-27T01:57:23;99718.59;;;9.28;52.26
55687;BME280;41911;52.362;4.978;2022-09-27T01:57:57;99715.67;;;9.59;50.70
55687;BME280;41911;52.362;4.978;2022-09-27T01:58:33;99722.24;;;9.82;50.18
55687;BME280;41911;52.362;4.978;2022-09-27T01:59:10;99719.48;;;9.56;51.78
55687;BME280;41911;52.362;4.978;2022-09-27T01:59:46;99724.91;;;9.85;51.29
55687;BME280;41911;52.362;4.978;2022-09-27T02:00:19;99722.20;;;9.42;51.76
55687;BME280;41911;52.362;4.978;2022-09-27T02:00:52;99724.86;;;9.70;51.44
55687;BME280;41911;52.362;4.978;2022-09-27T02:01:26;99723.53;;;9.70;51.43
55687;BME280;41911;52.362;4.978;2022-09-27T02:02:03;99723.21;;;10.14;50.73
55687;BME280;41911;52.362;4.978;2022-09-27T02:02:40;99727.48;;;10.31;49.99
55687;BME280;41911;52.362;4.978;2022-09-27T02:03:15;99725.80;;;10.06;51.22
55687;BME280;41911;52.362;4.978;2022-09-27T02:03:49;99726.48;;;9.86;50.82
55687;BME280;41911;52.362;4.978;2022-09-27T02:04:26;99728.61;;;10.30;50.51
55687;BME280;41911;52.362;4.978;2022-09-27T02:05:00;99726.62;;;9.79;51.03
55687;BME280;41911;52.362;4.978;2022-09-27T02:05:36;99728.33;;;9.58;51.41
55687;BME280;41911;52.362;4.978;2022-09-27T02:06:13;99723.19;;;9.65;51.22
55687;BME280;41911;52.362;4.978;2022-09-27T02:06:48;99725.31;;;9.59;51.56
55687;BME280;41911;52.362;4.978;2022-09-27T02:07:26;99729.44;;;9.67;51.17
55687;BME280;41911;52.362;4.978;2022-09-27T02:08:03;99721.06;;;9.51;51.71
55687;BME280;41911;52.362;4.978;2022-09-27T02:08:39;99720.88;;;9.49;51.80
55687;BME280;41911;52.362;4.978;2022-09-27T02:09:14;99719.82;;;9.28;52.71
55687;BME280;41911;52.362;4.978;2022-09-27T02:09:51;99723.99;;;9.56;52.48
55687;BME280;41911;52.362;4.978;2022-09-27T02:10:27;99721.82;;;9.56;51.88
55687;BME280;41911;52.362;4.978;2022-09-27T02:11:04;99719.99;;;9.63;52.60
55687;BME280;41911;52.362;4.978;2022-09-27T02:11:42;99722.99;;;9.79;52.37
55687;BME280;41911;52.362;4.978;2022-09-27T02:12:19;99719.48;;;9.59;52.19
55687;BME280;41911;52.362;4.978;2022-09-27T02:12:55;99723.01;;;10.07;51.15
55687;BME280;41911;52.362;4.978;2022-09-27T02:13:35;99729.24;;;9.85;51.65
55687;BME280;41911;52.362;4.978;2022-09-27T02:14:10;99730.62;;;9.57;51.56
55687;BME280;41911;52.362;4.978;2022-09-27T02:14:46;99730.93;;;10.00;51.60
55687;BME280;41911;52.362;4.978;2022-09-27T02:15:19;99729.01;;;9.64;51.70
55687;BME280;41911;52.362;4.978;2022-09-27T02:15:56;99729.10;;;9.72;52.23
55687;BME280;41911;52.362;4.978;2022-09-27T02:16:35;99727.53;;;9.86;52.14
55687;BME280;41911;52.362;4.978;2022-09-27T02:17:19;99722.53;;;9.49;51.80
55687;BME280;41911;52.362;4.978;2022-09-27T02:17:56;99726.96;;;9.31;53.19
55687;BME280;41911;52.362;4.978;2022-09-27T02:18:34;99725.68;;;9.68;52.58
55687;BME280;41911;52.362;4.978;2022-09-27T02:19:14;99725.72;;;9.86;51.17
55687;BME280;41911;52.362;4.978;2022-09-27T02:19:53;99734.11;;;9.52;51.51
55687;BME280;41911;52.362;4.978;2022-09-27T02:20:30;99725.97;;;9.45;52.08
55687;BME280;41911;52.362;4.978;2022-09-27T02:21:03;99728.35;;;8.91;53.67
55687;BME280;41911;52.362;4.978;2022-09-27T02:21:42;99734.89;;;9.03;52.65
55687;BME280;41911;52.362;4.978;2022-09-27T02:22:18;99729.41;;;9.16;53.11
55687;BME280;41911;52.362;4.978;2022-09-27T02:22:55;99731.21;;;9.55;52.52
55687;BME280;41911;52.362;4.978;2022-09-27T02:23:34;99729.30;;;9.09;53.21
55687;BME280;41911;52.362;4.978;2022-09-27T02:24:10;99721.72;;;9.04;52.92
55687;BME280;41911;52.362;4.978;2022-09-27T02:24:50;99720.26;;;9.59;53.09
55687;BME280;41911;52.362;4.978;2022-09-27T02:25:25;99720.00;;;9.34;52.83
55687;BME280;41911;52.362;4.978;2022-09-27T02:26:00;99719.74;;;9.52;51.74
55687;BME280;41911;52.362;4.978;2022-09-27T02:26:38;99710.74;;;9.52;51.86
55687;BME280;41911;52.362;4.978;2022-09-27T02:27:14;99706.38;;;9.48;51.64
55687;BME280;41911;52.362;4.978;2022-09-27T02:27:52;99710.89;;;8.75;53.40
55687;BME280;41911;52.362;4.978;2022-09-27T02:28:28;99709.08;;;9.30;52.04
55687;BME280;41911;52.362;4.978;2022-09-27T02:29:06;99708.10;;;8.76;53.06
55687;BME280;41911;52.362;4.978;2022-09-27T02:29:42;99702.44;;;8.62;53.13
55687;BME280;41911;52.362;4.978;2022-09-27T02:30:16;99700.98;;;9.05;52.51
55687;BME280;41911;52.362;4.978;2022-09-27T02:30:47;99704.19;;;9.10;52.50
55687;BME280;41911;52.362;4.978;2022-09-27T02:31:18;99703.76;;;9.47;51.38
55687;BME280;41911;52.362;4.978;2022-09-27T02:31:49;99701.29;;;9.42;51.15
55687;BME280;41911;52.362;4.978;2022-09-27T02:32:20;99701.78;;;9.58;51.31
55687;BME280;41911;52.362;4.978;2022-09-27T02:32:51;99702.10;;;9.39;51.65
55687;BME280;41911;52.362;4.978;2022-09-27T02:33:26;99704.06;;;9.70;51.07
55687;BME280;41911;52.362;4.978;2022-09-27T02:34:00;99705.16;;;9.64;51.07
55687;BME280;41911;52.362;4.978;2022-09-27T02:34:33;99705.68;;;9.85;51.11
55687;BME280;41911;52.362;4.978;2022-09-27T02:35:10;99704.60;;;10.06;50.81
55687;BME280;41911;52.362;4.978;2022-09-27T02:35:43;99707.50;;;9.88;50.33
55687;BME280;41911;52.362;4.978;2022-09-27T02:36:14;99708.96;;;10.24;50.39
55687;BME280;41911;52.362;4.978;2022-09-27T02:36:45;99711.17;;;9.93;50.83
55687;BME280;41911;52.362;4.978;2022-09-27T02:37:17;99708.75;;;9.73;51.33
55687;BME280;41911;52.362;4.978;2022-09-27T02:37:48;99713.60;;;9.32;52.68
55687;BME280;41911;52.362;4.978;2022-09-27T02:38:20;99717.23;;;9.44;52.26
55687;BME280;41911;52.362;4.978;2022-09-27T02:38:51;99719.68;;;9.21;52.63
55687;BME280;41911;52.362;4.978;2022-09-27T02:39:23;99722.35;;;9.25;53.17
55687;BME280;41911;52.362;4.978;2022-09-27T02:39:55;99719.82;;;9.38;52.74
55687;BME280;41911;52.362;4.978;2022-09-27T02:40:30;99714.37;;;9.48;52.60
55687;BME280;41911;52.362;4.978;2022-09-27T02:41:02;99712.61;;;9.74;52.16
55687;BME280;41911;52.362;4.978;2022-09-27T02:41:33;99710.85;;;9.92;51.95
55687;BME280;41911;52.362;4.978;2022-09-27T02:42:05;99709.53;;;9.62;52.04
55687;BME280;41911;52.362;4.978;2022-09-27T02:42:36;99705.97;;;9.67;52.33
55687;BME280;41911;52.362;4.978;2022-09-27T02:43:08;99707.41;;;9.67;52.23
55687;BME280;41911;52.362;4.978;2022-09-27T02:43:39;99707.27;;;9.77;51.61
55687;BME280;41911;52.362;4.978;2022-09-27T02:44:11;99706.08;;;10.43;51.45
55687;BME280;41911;52.362;4.978;2022-09-27T02:44:44;99702.90;;;10.09;51.13
55687;BME280;41911;52.362;4.978;2022-09-27T02:45:16;99702.90;;;10.14;51.12
55687;BME280;41911;52.362;4.978;2022-09-27T02:45:57;99703.32;;;10.30;50.66
55687;BME280;41911;52.362;4.978;2022-09-27T02:46:45;99701.65;;;10.35;50.31
55687;BME280;41911;52.362;4.978;2022-09-27T02:47:30;99701.18;;;10.02;51.06
55687;BME280;41911;52.362;4.978;2022-09-27T02:48:13;99700.78;;;10.01;51.14
55687;BME280;41911;52.362;4.978;2022-09-27T02:48:51;99699.50;;;9.98;50.71
55687;BME280;41911;52.362;4.978;2022-09-27T02:49:37;99700.29;;;10.36;49.95
55687;BME280;41911;52.362;4.978;2022-09-27T02:50:29;99702.20;;;10.09;50.05
55687;BME280;41911;52.362;4.978;2022-09-27T02:51:17;99703.58;;;10.35;50.27
55687;BME280;41911;52.362;4.978;2022-09-27T02:51:59;99703.83;;;9.77;50.24
55687;BME280;41911;52.362;4.978;2022-09-27T02:52:40;99703.08;;;10.00;50.46
55687;BME280;41911;52.362;4.978;2022-09-27T02:53:21;99703.37;;;9.92;50.66
55687;BME280;41911;52.362;4.978;2022-09-27T02:54:05;99704.87;;;10.11;50.09
55687;BME280;41911;52.362;4.978;2022-09-27T02:54:43;99706.74;;;10.17;50.03
55687;BME280;41911;52.362;4.978;2022-09-27T02:55:20;99707.76;;;9.84;50.02
55687;BME280;41911;52.362;4.978;2022-09-27T02:55:59;99705.89;;;10.15;50.26
55687;BME280;41911;52.362;4.978;2022-09-27T02:56:37;99706.89;;;10.09;51.00
55687;BME280;41911;52.362;4.978;2022-09-27T02:57:20;99707.39;;;9.70;51.14
55687;BME280;41911;52.362;4.978;2022-09-27T02:58:04;99707.93;;;9.90;51.00
55687;BME280;41911;52.362;4.978;2022-09-27T02:58:46;99708.42;;;9.88;50.83
55687;BME280;41911;52.362;4.978;2022-09-27T02:59:22;99707.09;;;9.93;50.99
55687;BME280;41911;52.362;4.978;2022-09-27T03:00:03;99711.04;;;9.71;51.48
55687;BME280;41911;52.362;4.978;2022-09-27T03:00:39;99710.98;;;9.86;51.32
55687;BME280;41911;52.362;4.978;2022-09-27T03:01:16;99711.71;;;8.84;52.55
55687;BME280;41911;52.362;4.978;2022-09-27T03:02:05;99711.79;;;9.21;52.59
55687;BME280;41911;52.362;4.978;2022-09-27T03:02:46;99715.78;;;9.79;51.79
55687;BME280;41911;52.362;4.978;2022-09-27T03:03:23;99711.01;;;9.35;52.53
55687;BME280;41911;52.362;4.978;2022-09-27T03:04:01;99706.86;;;9.79;52.27
55687;BME280;41911;52.362;4.978;2022-09-27T03:04:38;99712.42;;;9.96;52.12
55687;BME280;41911;52.362;4.978;2022-09-27T03:05:13;99718.40;;;9.30;51.04
55687;BME280;41911;52.362;4.978;2022-09-27T03:05:51;99713.16;;;9.46;52.11
55687;BME280;41911;52.362;4.978;2022-09-27T03:06:24;99711.99;;;9.50;52.56
55687;BME280;41911;52.362;4.978;2022-09-27T03:06:56;99713.72;;;9.89;52.34
55687;BME280;41911;52.362;4.978;2022-09-27T03:07:28;99718.35;;;9.80;51.98
55687;BME280;41911;52.362;4.978;2022-09-27T03:08:00;99719.72;;;9.93;51.27
55687;BME280;41911;52.362;4.978;2022-09-27T03:08:31;99723.91;;;9.97;51.50
55687;BME280;41911;52.362;4.978;2022-09-27T03:09:02;99722.54;;;9.75;51.70
55687;BME280;41911;52.362;4.978;2022-09-27T03:09:41;99728.95;;;9.69;51.61
55687;BME280;41911;52.362;4.978;2022-09-27T03:10:16;99719.89;;;9.64;51.25
55687;BME280;41911;52.362;4.978;2022-09-27T03:10:47;99719.20;;;9.72;51.48
55687;BME280;41911;52.362;4.978;2022-09-27T03:11:18;99719.19;;;9.76;51.63
55687;BME280;41911;52.362;4.978;2022-09-27T03:11:50;99719.68;;;10.33;51.11
55687;BME280;41911;52.362;4.978;2022-09-27T03:12:21;99719.59;;;9.52;51.12